Terminal Aerodrome Forecast
Issued by NWS Shreveport, LA

Home | Current Version | Previous Version | Text Only | Print | Product List | Glossary On
Versions: 1 2 3 4 5 6 7 8 9 10 11 12 13 14 15 16 17 18 19 20 21 22
000
FTUS44 KSHV 250416 AAB
TAFSHV
TAF AMD
KSHV 250416Z 2504/2524 18014G22KT P6SM VCTS BKN050CB
     FM250600 22010KT P6SM SKC
      TEMPO 2506/2508 20014G22KT BKN040
     FM251500 26012G20KT P6SM SCT050=

USA.gov is the U.S. government's official web portal to all federal, state and local government web resources and services.